Time;durP1;ratioP1;P1;durP2;ratioP2;P2;SDS_P1;SDS_P2;PMS_P1;PMS_P2;Temp;Humidity;BMP_temperature;BMP_pressure;BME280_temperature;BME280_humidity;BME280_pressure;Samples;Min_cycle;Max_cycle;Signal;HPM_P1;HPM_P2
2023/09/04 00:01:31;;;;;;;8.00;6.80;;;;;;;13.45;100.00;97523.09;108740;1266;22532;-84
2023/09/04 00:04:03;;;;;;;8.00;7.20;;;;;;;13.38;100.00;97522.00;108768;1272;22526;-83
2023/09/04 00:06:35;;;;;;;7.80;7.00;;;;;;;13.34;100.00;97521.16;108813;1272;22511;-83
2023/09/04 00:09:06;;;;;;;8.30;5.90;;;;;;;13.33;100.00;97521.33;108757;1272;22534;-84
2023/09/04 00:11:37;;;;;;;7.70;6.90;;;;;;;13.31;100.00;97521.39;108794;1272;25338;-83
2023/09/04 00:14:08;;;;;;;7.50;6.80;;;;;;;13.29;100.00;97519.96;108767;1272;24277;-84
2023/09/04 00:16:41;;;;;;;7.10;6.40;;;;;;;13.29;100.00;97529.13;108799;1272;22980;-84
2023/09/04 00:19:15;;;;;;;7.90;6.70;;;;;;;13.30;100.00;97527.36;108831;1267;22973;-84
2023/09/04 00:21:49;;;;;;;7.10;6.10;;;;;;;13.26;100.00;97525.89;108780;1272;23619;-84
2023/09/04 00:24:22;;;;;;;8.30;6.40;;;;;;;13.18;100.00;97528.77;108807;1272;23029;-84
2023/09/04 00:26:53;;;;;;;7.40;6.60;;;;;;;13.16;100.00;97528.02;108784;1272;22521;-84
2023/09/04 00:29:24;;;;;;;8.30;6.30;;;;;;;13.11;100.00;97537.41;108807;1270;22520;-84
2023/09/04 00:31:55;;;;;;;7.30;6.40;;;;;;;13.06;100.00;97535.70;108793;1272;22514;-84
2023/09/04 00:34:26;;;;;;;7.50;6.60;;;;;;;13.02;100.00;97537.06;108820;1266;22525;-84
2023/09/04 00:36:57;;;;;;;6.80;5.80;;;;;;;13.00;100.00;97536.70;108845;1254;26438;-84
2023/09/04 00:39:29;;;;;;;7.10;6.40;;;;;;;13.04;100.00;97536.79;108802;1270;22536;-84
2023/09/04 00:42:00;;;;;;;8.40;6.60;;;;;;;13.10;100.00;97535.45;108765;1270;22527;-84
2023/09/04 00:44:31;;;;;;;7.00;6.30;;;;;;;13.15;100.00;97532.23;108824;1272;24241;-84
2023/09/04 00:47:03;;;;;;;9.10;7.00;;;;;;;13.21;100.00;97537.29;108794;1272;22541;-83
2023/09/04 00:49:34;;;;;;;6.70;6.00;;;;;;;13.25;100.00;97541.29;108821;1271;25402;-83
2023/09/04 00:52:07;;;;;;;7.40;5.90;;;;;;;13.26;100.00;97543.36;108852;1272;22732;-84
2023/09/04 00:54:39;;;;;;;6.10;5.50;;;;;;;13.29;100.00;97541.16;108821;1272;22510;-84
2023/09/04 00:57:13;;;;;;;6.10;5.10;;;;;;;13.32;100.00;97544.92;108852;1269;22753;-84
2023/09/04 00:59:48;;;;;;;7.40;5.90;;;;;;;13.33;100.00;97545.34;108774;1272;26400;-84
2023/09/04 01:02:20;;;;;;;7.20;5.80;;;;;;;13.34;100.00;97548.27;108828;1269;22930;-84
2023/09/04 01:04:51;;;;;;;7.80;6.10;;;;;;;13.33;100.00;97548.69;108897;1269;22538;-84
2023/09/04 01:07:22;;;;;;;6.30;5.40;;;;;;;13.33;100.00;97549.92;108815;1272;22516;-84
2023/09/04 01:09:54;;;;;;;6.70;6.00;;;;;;;13.34;100.00;97549.29;108823;1272;22507;-83
2023/09/04 01:12:30;;;;;;;7.70;5.90;;;;;;;13.34;100.00;97554.83;108875;1269;24284;-84
2023/09/04 01:15:03;;;;;;;8.50;6.30;;;;;;;13.30;100.00;97551.06;108789;1272;25392;-84
2023/09/04 01:17:35;;;;;;;7.10;6.40;;;;;;;13.22;100.00;97554.50;108739;1267;22543;-84
2023/09/04 01:20:24;;;;;;;7.60;5.60;;;;;;;13.11;100.00;97557.21;108856;1269;22612;-84
2023/09/04 01:22:56;;;;;;;7.00;5.30;;;;;;;12.89;100.00;97553.28;108815;1265;22527;-83
2023/09/04 01:25:38;;;;;;;6.90;6.00;;;;;;;12.74;100.00;97555.16;108806;1272;22512;-84
2023/09/04 01:28:19;;;;;;;9.20;6.40;;;;;;;12.64;100.00;97559.34;108811;1271;22518;-84
2023/09/04 01:31:00;;;;;;;7.60;5.90;;;;;;;12.59;100.00;97561.89;108824;1270;22536;-83
2023/09/04 01:33:37;;;;;;;7.20;6.20;;;;;;;12.59;100.00;97564.23;108829;1271;25356;-84
2023/09/04 01:36:14;;;;;;;7.00;6.20;;;;;;;12.63;100.00;97561.50;108828;1270;22506;-83
2023/09/04 01:38:50;;;;;;;7.30;6.60;;;;;;;12.62;100.00;97564.91;108823;1272;22532;-84
2023/09/04 01:41:21;;;;;;;6.40;5.30;;;;;;;12.58;100.00;97568.70;108787;1272;22494;-84
2023/09/04 01:43:53;;;;;;;7.30;6.00;;;;;;;12.55;100.00;97568.23;108809;1272;22519;-84
2023/09/04 01:46:25;;;;;;;7.90;5.90;;;;;;;12.59;100.00;97575.04;108816;1272;22516;-84
2023/09/04 01:48:57;;;;;;;7.70;6.50;;;;;;;12.66;100.00;97577.15;108818;1272;22530;-83
2023/09/04 01:51:28;;;;;;;6.80;5.60;;;;;;;12.71;100.00;97577.20;108794;1269;22553;-84
2023/09/04 01:53:59;;;;;;;6.80;6.10;;;;;;;12.75;100.00;97576.19;108819;1269;22533;-84
2023/09/04 01:56:30;;;;;;;6.40;5.60;;;;;;;12.73;100.00;97586.02;108815;1264;22547;-83
2023/09/04 01:59:01;;;;;;;6.20;5.60;;;;;;;12.71;100.00;97582.52;108800;1269;23367;-84
2023/09/04 02:01:32;;;;;;;7.00;5.80;;;;;;;12.62;100.00;97581.78;108782;1272;22682;-84
2023/09/04 02:04:03;;;;;;;6.00;5.40;;;;;;;12.51;100.00;97580.94;108804;1270;25571;-84
2023/09/04 02:06:34;;;;;;;7.10;5.60;;;;;;;12.41;100.00;97583.45;108828;1272;22519;-84
2023/09/04 02:09:05;;;;;;;5.80;4.80;;;;;;;12.38;100.00;97584.77;108801;1271;22583;-84
2023/09/04 02:11:38;;;;;;;7.00;5.60;;;;;;;12.39;100.00;97586.31;108775;1272;22518;-84
2023/09/04 02:14:09;;;;;;;7.10;5.10;;;;;;;12.42;100.00;97588.29;108803;1264;22545;-84
2023/09/04 02:16:44;;;;;;;6.20;5.30;;;;;;;12.27;100.00;97589.44;108833;1271;22529;-84
2023/09/04 02:19:15;;;;;;;6.70;5.30;;;;;;;12.24;100.00;97589.11;108827;1272;22617;-83
2023/09/04 02:21:49;;;;;;;6.20;5.00;;;;;;;12.15;100.00;97590.55;108838;1271;22516;-84
2023/09/04 02:24:20;;;;;;;7.30;4.90;;;;;;;12.10;100.00;97588.39;108808;1272;24255;-83
2023/09/04 02:26:51;;;;;;;7.30;5.70;;;;;;;12.13;100.00;97589.65;108813;1272;22534;-83
2023/09/04 02:29:23;;;;;;;7.00;5.00;;;;;;;12.15;100.00;97586.18;108812;1272;22501;-83
2023/09/04 02:31:54;;;;;;;6.70;5.20;;;;;;;12.04;100.00;97588.61;108819;1272;22523;-83
2023/09/04 02:34:25;;;;;;;7.80;4.70;;;;;;;11.91;100.00;97590.59;108876;1272;22521;-84
2023/09/04 02:36:58;;;;;;;6.30;4.70;;;;;;;11.86;100.00;97595.27;108810;1272;22554;-84
2023/09/04 02:39:29;;;;;;;7.50;5.00;;;;;;;11.87;100.00;97597.83;108807;1272;22523;-84
2023/09/04 02:42:00;;;;;;;6.90;5.00;;;;;;;11.83;100.00;97591.91;108752;1272;22560;-84
2023/09/04 02:44:31;;;;;;;7.20;5.20;;;;;;;11.79;100.00;97589.95;108849;1272;22514;-84
2023/09/04 02:47:02;;;;;;;8.70;5.10;;;;;;;11.78;100.00;97590.43;108799;1272;22592;-83
2023/09/04 02:49:33;;;;;;;5.90;5.20;;;;;;;11.82;100.00;97589.68;108833;1272;22518;-83
2023/09/04 02:52:04;;;;;;;5.90;5.20;;;;;;;11.92;100.00;97586.55;108808;1272;22624;-84
2023/09/04 02:54:35;;;;;;;6.10;5.50;;;;;;;12.02;100.00;97584.67;108797;1270;22526;-84
2023/09/04 02:57:07;;;;;;;6.30;5.20;;;;;;;12.09;100.00;97581.27;108872;1272;22518;-84
2023/09/04 02:59:38;;;;;;;5.10;4.60;;;;;;;12.13;100.00;97583.63;108812;1267;22599;-84
2023/09/04 03:02:09;;;;;;;6.30;5.00;;;;;;;12.09;100.00;97582.60;108806;1272;25200;-84
2023/09/04 03:04:40;;;;;;;6.50;5.10;;;;;;;12.04;100.00;97590.30;108780;1270;22529;-84
2023/09/04 03:07:17;;;;;;;5.80;5.20;;;;;;;12.03;100.00;97585.84;108844;1270;24212;-84
2023/09/04 03:09:55;;;;;;;7.30;5.20;;;;;;;12.00;100.00;97578.89;108854;1272;22934;-84
2023/09/04 03:12:27;;;;;;;6.30;5.30;;;;;;;12.00;100.00;97587.76;108777;1267;22522;-83
2023/09/04 03:14:59;;;;;;;8.00;5.70;;;;;;;12.05;100.00;97588.88;108866;1272;22561;-83
2023/09/04 03:17:32;;;;;;;6.60;5.10;;;;;;;12.11;100.00;97586.60;108868;1264;23818;-83
2023/09/04 03:20:04;;;;;;;6.40;5.30;;;;;;;12.15;100.00;97587.20;108804;1272;29019;-83
2023/09/04 03:22:35;;;;;;;5.80;5.10;;;;;;;12.20;100.00;97586.13;108850;1267;22566;-83
2023/09/04 03:25:08;;;;;;;6.70;5.50;;;;;;;12.24;100.00;97588.89;108831;1264;22550;-83
2023/09/04 03:27:39;;;;;;;6.70;6.00;;;;;;;12.29;100.00;97583.65;108834;1272;22513;-84
2023/09/04 03:30:15;;;;;;;6.90;5.00;;;;;;;12.33;100.00;97589.55;108774;1264;24948;-83
2023/09/04 03:32:49;;;;;;;5.60;5.00;;;;;;;12.33;100.00;97592.84;108744;1272;22527;-84
2023/09/04 03:35:20;;;;;;;5.80;5.30;;;;;;;12.35;100.00;97593.80;108629;1272;243945;-83
2023/09/04 03:37:51;;;;;;;6.40;5.80;;;;;;;12.38;100.00;97595.82;108826;1272;24210;-83
2023/09/04 03:40:25;;;;;;;6.70;5.10;;;;;;;12.39;100.00;97597.53;108744;1272;22525;-83
2023/09/04 03:42:56;;;;;;;7.50;5.60;;;;;;;12.39;100.00;97602.60;108912;1272;22552;-83
2023/09/04 03:45:32;;;;;;;7.40;4.90;;;;;;;12.37;100.00;97599.61;108776;1264;22524;-84
2023/09/04 03:48:03;;;;;;;6.40;5.70;;;;;;;12.29;100.00;97601.09;108812;1272;22548;-83
2023/09/04 03:50:35;;;;;;;5.90;5.20;;;;;;;12.29;100.00;97603.33;108815;1267;25328;-83
2023/09/04 03:53:07;;;;;;;6.80;5.50;;;;;;;12.30;100.00;97607.36;108791;1272;22529;-83
2023/09/04 03:55:40;;;;;;;7.80;5.10;;;;;;;12.29;100.00;97613.21;108848;1272;22605;-83
2023/09/04 03:58:14;;;;;;;6.10;5.50;;;;;;;12.31;100.00;97611.93;108833;1272;22509;-84
2023/09/04 04:00:45;;;;;;;6.90;5.90;;;;;;;12.38;100.00;97619.23;108793;1272;22523;-83
2023/09/04 04:03:19;;;;;;;7.20;5.40;;;;;;;12.42;100.00;97615.20;108812;1264;22562;-83
2023/09/04 04:05:50;;;;;;;5.70;5.10;;;;;;;12.38;100.00;97611.04;108803;1272;25332;-83
2023/09/04 04:08:21;;;;;;;6.60;5.70;;;;;;;12.31;100.00;97613.43;108843;1272;22515;-83
2023/09/04 04:10:53;;;;;;;6.90;6.00;;;;;;;12.27;100.00;97616.78;108809;1272;22520;-83
2023/09/04 04:13:25;;;;;;;6.20;5.60;;;;;;;12.27;100.00;97617.05;108851;1266;24256;-83
2023/09/04 04:15:59;;;;;;;7.30;6.00;;;;;;;12.26;100.00;97626.20;108836;1272;22523;-83
2023/09/04 04:18:31;;;;;;;7.20;6.50;;;;;;;12.24;100.00;97630.27;108862;1272;22531;-83
2023/09/04 04:21:04;;;;;;;8.00;6.40;;;;;;;12.23;100.00;97632.27;108861;1267;22516;-83
2023/09/04 04:23:36;;;;;;;7.50;6.20;;;;;;;12.23;100.00;97636.64;108856;1272;22561;-83
2023/09/04 04:26:07;;;;;;;7.30;6.40;;;;;;;12.26;100.00;97646.19;108888;1265;22518;-83
2023/09/04 04:28:40;;;;;;;9.50;6.30;;;;;;;12.34;100.00;97643.84;108832;1267;26464;-83
2023/09/04 04:31:14;;;;;;;7.30;6.10;;;;;;;12.40;100.00;97650.62;108814;1272;25324;-83
2023/09/04 04:33:45;;;;;;;7.60;6.80;;;;;;;12.47;100.00;97656.79;108892;1264;22630;-83
2023/09/04 04:36:18;;;;;;;7.20;6.50;;;;;;;12.54;100.00;97652.86;108799;1269;22553;-83
2023/09/04 04:38:52;;;;;;;7.60;6.70;;;;;;;12.59;100.00;97657.23;108859;1272;22514;-83
2023/09/04 04:41:28;;;;;;;7.40;6.50;;;;;;;12.63;100.00;97659.30;108795;1267;24674;-83
2023/09/04 04:43:59;;;;;;;8.60;6.50;;;;;;;12.69;100.00;97663.58;108910;1271;25344;-84
2023/09/04 04:46:30;;;;;;;8.50;6.50;;;;;;;12.75;100.00;97673.73;108861;1264;22625;-83
2023/09/04 04:49:02;;;;;;;6.80;6.10;;;;;;;12.80;100.00;97678.61;108798;1272;22564;-83
2023/09/04 04:51:33;;;;;;;7.70;6.60;;;;;;;12.83;100.00;97685.50;108835;1272;22519;-83
2023/09/04 04:54:05;;;;;;;7.90;6.70;;;;;;;12.86;100.00;97687.31;108790;1272;22510;-83
2023/09/04 04:56:36;;;;;;;9.70;7.20;;;;;;;12.91;100.00;97686.45;108852;1271;22540;-83
2023/09/04 04:59:08;;;;;;;9.00;6.90;;;;;;;12.93;100.00;97691.39;108825;1272;22536;-84
2023/09/04 05:01:43;;;;;;;10.10;7.10;;;;;;;12.93;100.00;97694.74;108823;1268;22519;-83
2023/09/04 05:04:14;;;;;;;7.90;7.10;;;;;;;12.93;100.00;97691.87;108908;1272;22620;-83
2023/09/04 05:06:47;;;;;;;8.10;7.30;;;;;;;12.90;100.00;97695.55;108831;1272;22527;-83
2023/09/04 05:09:19;;;;;;;9.10;7.80;;;;;;;12.91;100.00;97694.70;108905;1264;24212;-83
2023/09/04 05:11:51;;;;;;;8.70;7.20;;;;;;;12.97;100.00;97697.91;108816;1272;24258;-83
2023/09/04 05:14:22;;;;;;;11.30;8.40;;;;;;;13.04;100.00;97703.64;108866;1272;22532;-83
2023/09/04 05:16:56;;;;;;;9.00;8.10;;;;;;;13.10;100.00;97705.52;108866;1272;22511;-84
2023/09/04 05:19:28;;;;;;;10.10;9.10;;;;;;;13.16;100.00;97708.55;108821;1267;23047;-83
2023/09/04 05:22:00;;;;;;;11.90;10.70;;;;;;;13.22;100.00;97708.73;108845;1267;22518;-83
2023/09/04 05:24:31;;;;;;;14.30;12.80;;;;;;;13.28;100.00;97711.02;108813;1265;22561;-83
2023/09/04 05:27:03;;;;;;;12.90;11.50;;;;;;;13.36;100.00;97709.63;108839;1267;22512;-83
2023/09/04 05:29:34;;;;;;;13.20;11.80;;;;;;;13.47;100.00;97706.08;108910;1272;22522;-83
2023/09/04 05:32:06;;;;;;;14.30;12.70;;;;;;;13.65;100.00;97710.63;108827;1272;22536;-83
2023/09/04 05:34:40;;;;;;;13.50;12.10;;;;;;;13.77;100.00;97705.30;108915;1267;22556;-83
2023/09/04 05:37:12;;;;;;;14.50;13.10;;;;;;;13.81;100.00;97709.42;108889;1272;25413;-83
2023/09/04 05:39:44;;;;;;;13.50;12.10;;;;;;;13.82;100.00;97708.98;108875;1269;22644;-83
2023/09/04 05:42:19;;;;;;;15.80;13.20;;;;;;;13.83;100.00;97712.87;108814;1271;22515;-83
2023/09/04 05:44:50;;;;;;;12.60;11.40;;;;;;;13.83;100.00;97713.88;108850;1266;26442;-83
2023/09/04 05:47:21;;;;;;;14.40;13.00;;;;;;;13.82;100.00;97716.02;108891;1271;22963;-83
2023/09/04 05:49:52;;;;;;;14.90;13.30;;;;;;;13.90;100.00;97719.61;108848;1271;24244;-82
2023/09/04 05:52:26;;;;;;;14.90;13.40;;;;;;;13.93;100.00;97723.22;108813;1267;22514;-83
2023/09/04 05:55:00;;;;;;;14.90;13.40;;;;;;;13.92;100.00;97723.80;108881;1271;22610;-83
2023/09/04 05:57:31;;;;;;;13.80;12.30;;;;;;;13.95;100.00;97722.05;108898;1264;22558;-83
2023/09/04 06:00:06;;;;;;;15.20;13.70;;;;;;;13.98;100.00;97722.57;108799;1269;22711;-83
2023/09/04 06:02:37;;;;;;;13.70;12.30;;;;;;;13.98;100.00;97718.90;108860;1267;25437;-83
2023/09/04 06:05:10;;;;;;;14.40;12.70;;;;;;;13.95;100.00;97715.13;108824;1267;25406;-83
2023/09/04 06:07:43;;;;;;;14.60;13.20;;;;;;;13.98;100.00;97713.08;108887;1272;22511;-83
2023/09/04 06:10:18;;;;;;;15.10;13.60;;;;;;;14.02;100.00;97710.02;108834;1269;24872;-83
2023/09/04 06:12:52;;;;;;;14.60;13.20;;;;;;;14.03;100.00;97710.23;108863;1272;22519;-83
2023/09/04 06:15:26;;;;;;;14.90;13.40;;;;;;;14.08;100.00;97711.23;108884;1271;22535;-83
2023/09/04 06:17:59;;;;;;;14.10;12.60;;;;;;;14.12;100.00;97715.59;108795;1271;22634;-83
2023/09/04 06:20:31;;;;;;;14.50;13.20;;;;;;;14.18;100.00;97714.64;108797;1271;24243;-83
2023/09/04 06:23:03;;;;;;;16.40;13.30;;;;;;;14.26;100.00;97710.61;108787;1270;25360;-83
2023/09/04 06:25:39;;;;;;;14.50;13.00;;;;;;;14.36;100.00;97705.65;108862;1266;22569;-83
2023/09/04 06:28:14;;;;;;;12.60;11.30;;;;;;;14.46;100.00;97705.08;108815;1272;24253;-83
2023/09/04 06:30:49;;;;;;;12.30;11.20;;;;;;;14.55;100.00;97707.60;108866;1272;22522;-83
2023/09/04 06:33:21;;;;;;;15.30;12.50;;;;;;;14.82;100.00;97704.53;108817;1267;25343;-83
2023/09/04 06:35:53;;;;;;;11.80;10.60;;;;;;;15.22;100.00;97707.58;108825;1264;22521;-83
2023/09/04 06:38:24;;;;;;;12.00;10.90;;;;;;;15.61;100.00;97708.44;108819;1271;22519;-83
2023/09/04 06:40:58;;;;;;;9.90;9.00;;;;;;;15.75;100.00;97713.55;108771;1266;22518;-83
2023/09/04 06:43:30;;;;;;;11.30;10.20;;;;;;;15.59;100.00;97712.69;108894;1271;22625;-83
2023/09/04 06:46:02;;;;;;;12.40;9.80;;;;;;;15.44;100.00;97712.71;108845;1264;22525;-83
2023/09/04 06:48:34;;;;;;;12.10;10.90;;;;;;;15.36;100.00;97716.27;108860;1266;25911;-83
2023/09/04 06:51:05;;;;;;;11.20;10.20;;;;;;;15.31;100.00;97717.80;108802;1272;22512;-83
2023/09/04 06:53:36;;;;;;;10.40;9.20;;;;;;;15.27;100.00;97715.70;108841;1261;23102;-83
2023/09/04 06:56:07;;;;;;;10.30;9.30;;;;;;;15.34;100.00;97719.33;108843;1271;22520;-83
2023/09/04 06:58:39;;;;;;;10.70;9.70;;;;;;;15.39;100.00;97714.16;108836;1271;22542;-83
2023/09/04 07:01:17;;;;;;;10.70;9.60;;;;;;;15.49;100.00;97711.11;108826;1272;22530;-83
2023/09/04 07:03:50;;;;;;;11.90;9.70;;;;;;;15.56;100.00;97706.02;108822;1266;22630;-83
2023/09/04 07:06:21;;;;;;;10.50;9.50;;;;;;;15.56;100.00;97706.93;108881;1271;22526;-83
2023/09/04 07:08:53;;;;;;;12.50;10.90;;;;;;;15.46;99.56;97709.65;108849;1271;22538;-83
2023/09/04 07:11:24;;;;;;;11.80;10.70;;;;;;;15.29;99.10;97712.00;108838;1271;25287;-83
2023/09/04 07:13:58;;;;;;;13.30;9.20;;;;;;;15.13;98.54;97712.20;108828;1265;24467;-83
2023/09/04 07:16:31;;;;;;;10.10;9.00;;;;;;;14.99;98.27;97718.40;108871;1271;23834;-83
2023/09/04 07:19:02;;;;;;;10.60;9.50;;;;;;;14.95;98.59;97723.30;108876;1267;22537;-83
2023/09/04 07:21:36;;;;;;;11.20;10.10;;;;;;;14.95;98.63;97722.44;108890;1271;22511;-83
2023/09/04 07:24:08;;;;;;;11.50;9.40;;;;;;;14.91;98.25;97723.73;108840;1266;22631;-83
2023/09/04 07:26:41;;;;;;;10.60;9.20;;;;;;;14.94;98.48;97726.87;108807;1272;22514;-83
2023/09/04 07:29:17;;;;;;;9.40;8.50;;;;;;;15.10;99.00;97724.83;108845;1271;22518;-83
2023/09/04 07:31:48;;;;;;;11.60;9.60;;;;;;;15.35;99.59;97730.16;108826;1269;26458;-83
2023/09/04 07:34:22;;;;;;;11.50;9.50;;;;;;;15.76;100.00;97731.34;108846;1272;22522;-83
2023/09/04 07:36:56;;;;;;;10.40;9.40;;;;;;;16.22;100.00;97731.30;108809;1272;22520;-83
2023/09/04 07:39:27;;;;;;;10.00;9.00;;;;;;;16.72;100.00;97732.55;108836;1269;22514;-83
2023/09/04 07:41:58;;;;;;;8.80;7.90;;;;;;;16.94;98.82;97736.98;108810;1266;23304;-83
2023/09/04 07:44:31;;;;;;;9.00;7.60;;;;;;;16.89;97.14;97742.30;108836;1271;22518;-83
2023/09/04 07:47:02;;;;;;;9.10;7.90;;;;;;;16.77;96.09;97749.60;108851;1266;24209;-83
2023/09/04 07:49:35;;;;;;;8.30;7.20;;;;;;;16.63;95.21;97754.16;108805;1272;24218;-83
2023/09/04 07:52:07;;;;;;;10.50;7.30;;;;;;;16.57;95.30;97748.70;108756;1271;24304;-83
2023/09/04 07:54:38;;;;;;;7.50;6.60;;;;;;;16.64;95.93;97752.92;108809;1272;22606;-83
2023/09/04 07:57:13;;;;;;;9.80;7.80;;;;;;;16.73;96.05;97750.23;108820;1267;22544;-83
2023/09/04 07:59:46;;;;;;;9.20;7.20;;;;;;;16.76;95.51;97753.16;108890;1272;25409;-83
2023/09/04 08:02:17;;;;;;;10.10;7.80;;;;;;;16.74;94.61;97760.52;108828;1253;22545;-83
2023/09/04 08:04:49;;;;;;;8.80;7.90;;;;;;;16.70;94.21;97762.71;108842;1269;22924;-83
2023/09/04 08:07:20;;;;;;;10.40;7.80;;;;;;;16.74;94.65;97770.08;108839;1264;22528;-83
2023/09/04 08:09:52;;;;;;;8.60;7.60;;;;;;;16.78;94.35;97775.34;108839;1272;22518;-79
2023/09/04 08:12:23;;;;;;;11.00;9.20;;;;;;;16.85;94.38;97777.65;108870;1271;25230;-83
2023/09/04 08:14:55;;;;;;;8.70;7.90;;;;;;;16.92;94.49;97777.25;108813;1265;22524;-83
2023/09/04 08:17:27;;;;;;;10.10;7.00;;;;;;;16.86;93.49;97773.58;108864;1267;22511;-83
2023/09/04 08:19:58;;;;;;;9.20;7.20;;;;;;;16.72;93.14;97778.09;108799;1271;22550;-82
2023/09/04 08:22:29;;;;;;;8.80;7.90;;;;;;;16.67;93.19;97782.02;108894;1271;22521;-83
2023/09/04 08:25:01;;;;;;;9.00;7.50;;;;;;;16.61;93.29;97782.94;108736;1272;22508;-83
2023/09/04 08:27:32;;;;;;;9.30;8.20;;;;;;;16.56;93.04;97781.54;108762;1272;22548;-83
2023/09/04 08:30:04;;;;;;;7.80;7.00;;;;;;;16.50;92.89;97779.02;108724;1272;22543;-82
2023/09/04 08:32:35;;;;;;;9.70;7.70;;;;;;;16.55;93.03;97776.41;108756;1272;23358;-83
2023/09/04 08:35:08;;;;;;;9.10;7.50;;;;;;;16.59;92.62;97769.34;108755;1272;22511;-83
2023/09/04 08:37:41;;;;;;;8.70;7.20;;;;;;;16.51;91.79;97768.38;108752;1272;22517;-83
2023/09/04 08:40:15;;;;;;;8.60;7.20;;;;;;;16.35;91.17;97771.92;108738;1272;22511;-82
2023/09/04 08:42:48;;;;;;;10.00;7.50;;;;;;;16.36;92.12;97778.70;108748;1272;22627;-83
2023/09/04 08:45:21;;;;;;;11.30;9.30;;;;;;;16.59;92.58;97776.49;108740;1272;25485;-83
2023/09/04 08:47:55;;;;;;;8.00;7.20;;;;;;;16.89;93.00;97768.92;108725;1271;22522;-83
2023/09/04 08:50:27;;;;;;;9.20;7.20;;;;;;;17.03;92.09;97770.53;108768;1272;29429;-83
2023/09/04 08:52:59;;;;;;;8.40;6.90;;;;;;;16.97;91.43;97769.34;108716;1270;22532;-83
2023/09/04 08:55:33;;;;;;;7.80;7.00;;;;;;;16.88;91.25;97768.44;108779;1272;22575;-83
2023/09/04 08:58:05;;;;;;;9.70;7.50;;;;;;;16.75;90.77;97769.86;108698;1266;23038;-83
2023/09/04 09:00:37;;;;;;;10.00;6.60;;;;;;;16.68;91.02;97767.27;108761;1270;23306;-82
2023/09/04 09:03:09;;;;;;;7.70;6.70;;;;;;;16.71;91.21;97766.06;108709;1272;24305;-82
2023/09/04 09:05:41;;;;;;;8.60;6.50;;;;;;;16.77;91.53;97765.61;108746;1266;23004;-83
2023/09/04 09:08:14;;;;;;;8.30;6.20;;;;;;;16.95;91.56;97762.72;108709;1272;23052;-83
2023/09/04 09:10:46;;;;;;;8.10;7.20;;;;;;;17.07;90.76;97762.60;108707;1272;22566;-82
2023/09/04 09:13:18;;;;;;;9.10;6.80;;;;;;;17.15;90.68;97766.33;108710;1266;22546;-82
2023/09/04 09:15:49;;;;;;;8.30;7.00;;;;;;;17.37;91.11;97769.04;108740;1266;22530;-83
2023/09/04 09:18:38;;;;;;;8.00;6.00;;;;;;;17.60;91.08;97765.80;108732;1266;25278;-83
2023/09/04 09:21:27;;;;;;;7.70;6.90;;;;;;;17.66;90.20;97768.80;108805;1269;22520;-82
2023/09/04 09:24:17;;;;;;;10.30;7.70;;;;;;;17.58;89.79;97771.04;108748;1266;22482;-82
2023/09/04 09:26:50;;;;;;;10.70;7.50;;;;;;;17.51;89.54;97768.15;108815;1265;22514;-83
2023/09/04 09:29:21;;;;;;;7.30;6.30;;;;;;;17.30;89.03;97762.66;108815;1272;22524;-83
2023/09/04 09:31:57;;;;;;;8.60;6.70;;;;;;;17.14;89.10;97765.32;108797;1271;25287;-82
2023/09/04 09:34:34;;;;;;;6.50;5.80;;;;;;;17.06;89.32;97762.82;108849;1266;22521;-83
2023/09/04 09:37:06;;;;;;;9.80;6.20;;;;;;;16.97;88.94;97766.16;108832;1266;24456;-83
2023/09/04 09:39:37;;;;;;;8.00;5.80;;;;;;;16.88;88.89;97769.73;108816;1271;22520;-83
2023/09/04 09:42:09;;;;;;;8.10;6.20;;;;;;;16.81;88.91;97768.98;108787;1265;22514;-83
2023/09/04 09:44:40;;;;;;;8.20;5.60;;;;;;;16.75;88.96;97775.98;108812;1269;22526;-83
2023/09/04 09:47:15;;;;;;;7.20;5.80;;;;;;;16.74;89.30;97776.29;108868;1269;22514;-83
2023/09/04 09:49:51;;;;;;;7.60;5.60;;;;;;;16.77;89.49;97781.42;108798;1271;24956;-83
2023/09/04 09:52:22;;;;;;;9.00;5.60;;;;;;;16.75;89.40;97784.21;108783;1266;23051;-83
2023/09/04 09:54:53;;;;;;;6.70;5.90;;;;;;;16.79;89.89;97780.15;108766;1266;24206;-83
2023/09/04 09:57:27;;;;;;;10.10;7.90;;;;;;;16.80;89.57;97780.46;108778;1271;24387;-83
2023/09/04 10:00:03;;;;;;;8.40;7.00;;;;;;;16.71;89.21;97781.76;108818;1266;24490;-82
2023/09/04 10:02:34;;;;;;;7.30;6.20;;;;;;;16.66;89.17;97783.47;108854;1266;24208;-83
2023/09/04 10:05:09;;;;;;;9.30;6.00;;;;;;;16.60;89.15;97779.46;108800;1266;22519;-83
2023/09/04 10:07:48;;;;;;;7.90;5.90;;;;;;;16.66;89.60;97780.20;108825;1272;22529;-83
2023/09/04 10:10:20;;;;;;;8.90;5.90;;;;;;;16.90;90.43;97773.45;108772;1271;22533;-83
2023/09/04 10:12:56;;;;;;;9.30;6.20;;;;;;;17.07;90.07;97769.20;108841;1271;22514;-83
2023/09/04 10:15:28;;;;;;;6.60;5.50;;;;;;;17.17;89.60;97764.37;108855;1266;22511;-83
2023/09/04 10:18:05;;;;;;;7.70;5.50;;;;;;;17.30;89.46;97764.27;108838;1260;22513;-83
2023/09/04 10:20:37;;;;;;;8.10;5.40;;;;;;;17.35;89.68;97767.25;108836;1271;22622;-83
2023/09/04 10:23:14;;;;;;;9.80;5.90;;;;;;;17.37;89.29;97765.33;108847;1272;22518;-83
2023/09/04 10:25:56;;;;;;;7.30;5.80;;;;;;;17.39;89.28;97769.59;108829;1271;24296;-83
2023/09/04 10:28:35;;;;;;;6.10;5.20;;;;;;;17.38;88.82;97766.22;108884;1266;22545;-83
2023/09/04 10:31:07;;;;;;;8.60;5.40;;;;;;;17.37;88.11;97764.53;108804;1272;22528;-83
2023/09/04 10:33:40;;;;;;;6.10;5.00;;;;;;;17.37;88.29;97766.71;108845;1266;22630;-82
2023/09/04 10:36:13;;;;;;;6.40;4.80;;;;;;;17.56;89.31;97760.89;108945;1271;23165;-83
2023/09/04 10:38:45;;;;;;;5.50;4.50;;;;;;;17.66;89.05;97760.76;108870;1259;22512;-83
2023/09/04 10:41:17;;;;;;;7.00;5.00;;;;;;;17.67;88.50;97760.58;108837;1271;22916;-83
2023/09/04 10:43:49;;;;;;;7.50;5.30;;;;;;;17.59;87.39;97761.25;108869;1266;26452;-83
2023/09/04 10:46:20;;;;;;;8.80;5.00;;;;;;;17.51;87.16;97763.59;108847;1266;22517;-83
2023/09/04 10:48:52;;;;;;;5.60;5.00;;;;;;;17.46;87.42;97757.58;108823;1266;22983;-83
2023/09/04 10:51:34;;;;;;;5.70;5.10;;;;;;;17.44;87.54;97760.59;108784;1271;22553;-82
2023/09/04 10:54:24;;;;;;;5.90;4.80;;;;;;;17.47;87.89;97758.69;108785;1266;22514;-82
2023/09/04 10:56:57;;;;;;;8.50;5.50;;;;;;;17.52;88.07;97753.02;108811;1264;25234;-82
2023/09/04 10:59:28;;;;;;;7.40;5.00;;;;;;;17.59;88.24;97750.64;108811;1271;22612;-83
2023/09/04 11:01:59;;;;;;;7.70;5.50;;;;;;;17.66;88.53;97747.23;108833;1271;26471;-83
2023/09/04 11:04:44;;;;;;;8.40;5.30;;;;;;;17.69;87.72;97742.64;108834;1269;22513;-83
2023/09/04 11:07:34;;;;;;;8.40;5.10;;;;;;;17.60;86.92;97738.23;108815;1272;22524;-83
2023/09/04 11:10:23;;;;;;;7.50;5.70;;;;;;;17.53;86.72;97737.34;108832;1271;22527;-82
2023/09/04 11:12:55;;;;;;;7.40;5.30;;;;;;;17.41;86.35;97728.16;108758;1267;24380;-83
2023/09/04 11:15:29;;;;;;;6.40;5.80;;;;;;;17.43;87.24;97731.28;108796;1263;25278;-83
2023/09/04 11:18:00;;;;;;;9.70;7.00;;;;;;;17.56;87.46;97729.83;108808;1269;22522;-83
2023/09/04 11:20:54;;;;;;;6.80;5.50;;;;;;;17.65;87.84;97728.17;108806;1263;22585;-83
2023/09/04 11:23:28;;;;;;;12.00;6.40;;;;;;;17.76;87.08;97728.38;108798;1271;23631;-83
2023/09/04 11:25:59;;;;;;;8.50;6.60;;;;;;;17.76;87.02;97730.03;108849;1266;22558;-82
2023/09/04 11:28:30;;;;;;;6.50;3.80;;;;;;;17.80;87.44;97732.27;108801;1266;22504;-82
2023/09/04 11:31:02;;;;;;;6.30;4.50;;;;;;;17.82;86.75;97734.21;108775;1272;25186;-82
2023/09/04 11:33:34;;;;;;;6.90;4.20;;;;;;;17.84;86.45;97738.02;108813;1263;22804;-82
2023/09/04 11:36:07;;;;;;;5.60;3.80;;;;;;;17.93;86.99;97735.39;108776;1272;25417;-82
2023/09/04 11:38:38;;;;;;;5.90;4.60;;;;;;;18.09;86.51;97736.58;108861;1271;24188;-82
2023/09/04 11:41:18;;;;;;;6.60;4.50;;;;;;;18.24;86.67;97734.48;108795;1264;25328;-82
2023/09/04 11:43:49;;;;;;;6.30;4.40;;;;;;;18.43;86.75;97739.98;108811;1267;22527;-82